createdAt,value
2018-04-12T00:00:07.403Z,99.99
2018-04-12T00:01:17.380Z,99.99
2018-04-12T00:02:27.344Z,99.99
2018-04-12T00:03:37.311Z,99.99
2018-04-12T00:04:46.758Z,99.99
2018-04-12T00:05:56.470Z,99.99
2018-04-12T00:07:06.508Z,99.99
2018-04-12T00:08:16.481Z,99.99
2018-04-12T00:09:26.223Z,99.99
2018-04-12T00:10:36.212Z,99.99
2018-04-12T00:11:46.171Z,99.99
2018-04-12T00:12:56.131Z,99.99
2018-04-12T00:14:06.111Z,99.99
2018-04-12T00:15:16.089Z,99.99
2018-04-12T00:16:26.048Z,99.99
2018-04-12T00:17:36.037Z,99.99
2018-04-12T00:18:45.759Z,99.99
2018-04-12T00:19:55.470Z,99.99
2018-04-12T00:21:05.457Z,99.99
2018-04-12T00:22:15.157Z,99.99
2018-04-12T00:23:25.120Z,99.99
2018-04-12T00:24:34.828Z,99.99
2018-04-12T00:25:44.554Z,99.99
2018-04-12T00:26:54.522Z,99.99
2018-04-12T00:28:04.490Z,99.99
2018-04-12T00:29:14.457Z,99.99
2018-04-12T00:30:24.436Z,99.99
2018-04-12T00:31:34.159Z,99.99
2018-04-12T00:32:43.874Z,99.99
2018-04-12T00:33:53.841Z,99.99
2018-04-12T00:35:03.815Z,99.99
2018-04-12T00:36:13.773Z,99.99
2018-04-12T00:37:22.965Z,99.99
2018-04-12T00:38:32.943Z,99.99
2018-04-12T00:39:42.665Z,99.99
2018-04-12T00:40:52.651Z,99.99
2018-04-12T00:42:02.371Z,99.99
2018-04-12T00:43:12.092Z,99.99
2018-04-12T00:44:22.078Z,99.99
2018-04-12T00:45:32.040Z,99.99
2018-04-12T00:46:42.030Z,99.99
2018-04-12T00:47:52.002Z,99.99
2018-04-12T00:49:01.716Z,99.99
2018-04-12T00:50:11.697Z,99.99
2018-04-12T00:51:21.665Z,99.99
2018-04-12T00:52:31.641Z,99.99
2018-04-12T00:53:41.628Z,99.99
2018-04-12T00:54:51.342Z,99.99
2018-04-12T00:56:01.077Z,99.99
2018-04-12T00:57:10.785Z,99.99
2018-04-12T00:58:20.813Z,99.99
2018-04-12T00:59:30.524Z,99.99
2018-04-12T01:00:40.497Z,99.99
2018-04-12T01:01:50.239Z,99.99
2018-04-12T01:02:59.957Z,99.99
2018-04-12T01:04:09.933Z,99.99
2018-04-12T01:05:19.906Z,99.99
2018-04-12T01:06:29.894Z,99.99
2018-04-12T01:07:39.864Z,99.99
2018-04-12T01:08:49.579Z,99.99
2018-04-12T01:09:59.557Z,99.99
2018-04-12T01:11:09.527Z,99.99
2018-04-12T01:12:19.255Z,99.99
2018-04-12T01:13:29.232Z,99.99
2018-04-12T01:14:39.200Z,99.99
2018-04-12T01:15:49.171Z,99.99
2018-04-12T01:16:58.655Z,99.99
2018-04-12T01:18:08.634Z,99.99
2018-04-12T01:19:18.604Z,99.99
2018-04-12T01:20:28.307Z,99.99
2018-04-12T01:21:38.271Z,99.99
2018-04-12T01:22:47.721Z,99.99
2018-04-12T01:23:57.715Z,99.99
2018-04-12T01:25:07.683Z,99.99
2018-04-12T01:26:17.646Z,99.99
2018-04-12T01:27:27.626Z,99.99
2018-04-12T01:28:37.603Z,99.99
2018-04-12T01:29:47.597Z,99.99
2018-04-12T01:30:57.326Z,99.99
2018-04-12T01:32:07.046Z,99.99
2018-04-12T01:33:17.017Z,99.99
2018-04-12T01:34:27.031Z,99.99
2018-04-12T01:35:37.018Z,99.99
2018-04-12T01:36:47.011Z,99.99
2018-04-12T01:37:56.985Z,99.99
2018-04-12T01:39:06.712Z,99.99
2018-04-12T01:40:16.680Z,99.99
2018-04-12T01:41:26.657Z,99.99
2018-04-12T01:42:36.363Z,99.99
2018-04-12T01:43:46.327Z,99.99
2018-04-12T01:44:55.786Z,99.99
2018-04-12T01:46:05.773Z,99.99
2018-04-12T01:47:15.745Z,99.99
2018-04-12T01:48:25.710Z,99.99
2018-04-12T01:49:35.680Z,99.99
2018-04-12T01:50:45.660Z,99.99
2018-04-12T01:51:55.371Z,99.99
2018-04-12T01:53:05.341Z,99.99
2018-04-12T01:54:15.386Z,99.99
2018-04-12T01:55:25.377Z,99.99
2018-04-12T01:56:35.338Z,99.99
2018-04-12T01:57:45.077Z,99.99
2018-04-12T01:58:55.061Z,99.99
2018-04-12T02:00:04.245Z,99.99
2018-04-12T02:01:14.208Z,99.99
2018-04-12T02:02:24.167Z,99.99
2018-04-12T02:03:33.891Z,99.99
2018-04-12T02:04:43.903Z,99.99
2018-04-12T02:05:53.901Z,99.99
2018-04-12T02:07:03.613Z,99.99
2018-04-12T02:08:13.579Z,99.99
2018-04-12T02:09:23.559Z,99.99
2018-04-12T02:10:33.532Z,99.99
2018-04-12T02:11:43.499Z,99.99
2018-04-12T02:12:53.487Z,99.99
2018-04-12T02:14:03.195Z,99.99
2018-04-12T02:15:12.379Z,99.99
2018-04-12T02:16:21.836Z,99.99
2018-04-12T02:17:31.312Z,99.99
2018-04-12T02:18:40.495Z,99.99
2018-04-12T02:19:50.210Z,99.99
2018-04-12T02:20:59.923Z,99.99
2018-04-12T02:22:09.620Z,99.99
2018-04-12T02:23:19.339Z,99.99
2018-04-12T02:24:29.097Z,99.99
2018-04-12T02:25:39.068Z,99.99
2018-04-12T02:26:49.073Z,99.99
2018-04-12T02:27:59.041Z,99.99
2018-04-12T02:29:09.007Z,99.99
2018-04-12T02:30:18.986Z,99.99
2018-04-12T02:31:28.977Z,99.99
2018-04-12T02:32:38.952Z,99.99
2018-04-12T02:33:48.926Z,99.99
2018-04-12T02:34:58.907Z,99.99
2018-04-12T02:36:08.933Z,99.99
2018-04-12T02:37:18.913Z,99.99
2018-04-12T02:38:28.892Z,99.99
2018-04-12T02:39:38.893Z,99.99
2018-04-12T02:40:48.611Z,99.99
2018-04-12T02:41:57.805Z,99.99
2018-04-12T02:43:07.923Z,99.99
2018-04-12T02:44:17.643Z,99.99
2018-04-12T02:45:27.631Z,99.99
2018-04-12T02:46:37.094Z,99.99
2018-04-12T02:47:46.810Z,99.99
2018-04-12T02:48:56.303Z,99.99
2018-04-12T02:50:06.321Z,99.99
2018-04-12T02:51:16.294Z,99.99
2018-04-12T02:52:26.039Z,99.99
2018-04-12T02:53:36.031Z,99.99
2018-04-12T02:54:46.064Z,99.99
2018-04-12T02:55:56.049Z,99.99
2018-04-12T02:57:06.027Z,99.99
2018-04-12T02:58:15.989Z,99.99
2018-04-12T02:59:25.967Z,99.99
2018-04-12T03:00:35.962Z,99.99
2018-04-12T03:01:45.686Z,99.99
2018-04-12T03:02:55.652Z,99.99
2018-04-12T03:04:05.632Z,99.99
2018-04-12T03:05:15.342Z,99.99
2018-04-12T03:06:25.050Z,99.99
2018-04-12T03:07:35.014Z,99.99
2018-04-12T03:08:44.718Z,99.99
2018-04-12T03:09:54.687Z,99.99
2018-04-12T03:11:04.395Z,99.99
2018-04-12T03:12:14.107Z,99.99
2018-04-12T03:13:23.812Z,99.99
2018-04-12T03:14:33.781Z,99.99
2018-04-12T03:15:43.745Z,99.99
2018-04-12T03:16:53.195Z,99.99
2018-04-12T03:18:03.169Z,99.99
2018-04-12T03:19:12.923Z,99.99
2018-04-12T03:20:22.635Z,99.99
2018-04-12T03:21:32.346Z,99.99
2018-04-12T03:22:42.061Z,99.99
2018-04-12T03:23:52.024Z,99.99
2018-04-12T03:25:01.731Z,99.99
2018-04-12T03:26:11.692Z,99.99
2018-04-12T03:27:21.398Z,99.99
2018-04-12T03:28:31.110Z,99.99
2018-04-12T03:29:41.137Z,99.99
2018-04-12T03:30:50.894Z,99.99
2018-04-12T03:32:00.601Z,99.99
2018-04-12T03:33:10.581Z,99.99
2018-04-12T03:34:20.544Z,99.99
2018-04-12T03:35:30.250Z,99.99
2018-04-12T03:36:40.220Z,99.99
2018-04-12T03:37:50.183Z,99.99
2018-04-12T03:39:00.147Z,99.99
2018-04-12T03:40:09.857Z,99.99
2018-04-12T03:41:19.823Z,99.99
2018-04-12T03:42:29.806Z,99.99
2018-04-12T03:43:39.783Z,99.99
2018-04-12T03:44:49.762Z,99.99
2018-04-12T03:45:59.724Z,99.99
2018-04-12T03:47:09.429Z,99.99
2018-04-12T03:48:19.403Z,99.99
2018-04-12T03:49:29.482Z,99.99
2018-04-12T03:50:39.819Z,99.99
2018-04-12T03:51:49.810Z,99.99
2018-04-12T03:52:59.779Z,99.99
2018-04-12T03:54:09.493Z,99.99
2018-04-12T03:55:19.461Z,99.99
2018-04-12T03:56:29.429Z,99.99
2018-04-12T03:57:38.881Z,99.99
2018-04-12T03:58:48.858Z,99.99
2018-04-12T03:59:58.830Z,99.99
2018-04-12T04:01:08.539Z,99.99
2018-04-12T04:02:18.523Z,99.99
2018-04-12T04:03:28.482Z,99.99
2018-04-12T04:04:38.444Z,99.99
2018-04-12T04:05:48.151Z,99.99
2018-04-12T04:06:57.869Z,99.99
2018-04-12T04:08:07.834Z,99.99
2018-04-12T04:09:17.823Z,99.99
2018-04-12T04:10:27.819Z,99.99
2018-04-12T04:11:37.788Z,99.99
2018-04-12T04:12:47.759Z,99.99
2018-04-12T04:13:57.462Z,99.99
2018-04-12T04:15:07.170Z,99.99
2018-04-12T04:16:16.882Z,99.99
2018-04-12T04:17:26.856Z,99.99
2018-04-12T04:18:36.829Z,99.99
2018-04-12T04:19:46.787Z,99.99
2018-04-12T04:20:56.495Z,99.99
2018-04-12T04:22:06.201Z,99.99
2018-04-12T04:23:16.166Z,99.99
2018-04-12T04:24:25.928Z,99.99
2018-04-12T04:25:35.912Z,99.99
2018-04-12T04:26:45.884Z,99.99
2018-04-12T04:27:55.865Z,99.99
2018-04-12T04:29:05.853Z,99.99
2018-04-12T04:30:15.581Z,99.99
2018-04-12T04:31:25.558Z,99.99
2018-04-12T04:32:35.527Z,99.99
2018-04-12T04:33:45.500Z,99.99
2018-04-12T04:34:55.211Z,99.99
2018-04-12T04:36:05.182Z,99.99
2018-04-12T04:37:15.148Z,99.99
2018-04-12T04:38:25.207Z,99.99
2018-04-12T04:39:35.163Z,99.99
2018-04-12T04:40:44.866Z,99.99
2018-04-12T04:41:54.836Z,99.99
2018-04-12T04:43:04.803Z,99.99
2018-04-12T04:44:14.768Z,99.99
2018-04-12T04:45:24.737Z,99.99
2018-04-12T04:46:34.720Z,99.99
2018-04-12T04:47:44.435Z,99.99
2018-04-12T04:48:54.423Z,99.99
2018-04-12T04:50:03.620Z,99.99
2018-04-12T04:51:13.328Z,99.99
2018-04-12T04:52:23.309Z,99.99
2018-04-12T04:53:33.033Z,99.99
2018-04-12T04:54:43.024Z,99.99
2018-04-12T04:55:52.725Z,99.99
2018-04-12T04:57:02.698Z,99.99
2018-04-12T04:58:12.682Z,99.99
2018-04-12T04:59:22.131Z,99.99
2018-04-12T05:00:32.097Z,99.99
2018-04-12T05:01:42.063Z,99.99
2018-04-12T05:02:52.029Z,99.99
2018-04-12T05:04:02.037Z,99.99
2018-04-12T05:05:12.007Z,99.99
2018-04-12T05:06:21.713Z,99.99
2018-04-12T05:07:31.683Z,99.99
2018-04-12T05:08:41.423Z,99.99
2018-04-12T05:09:51.412Z,99.99
2018-04-12T05:11:01.385Z,99.99
2018-04-12T05:12:11.101Z,99.99
2018-04-12T05:13:21.057Z,99.99
2018-04-12T05:14:30.764Z,99.99
2018-04-12T05:15:40.996Z,99.99
2018-04-12T05:16:51.116Z,99.99
2018-04-12T05:18:01.082Z,99.99
2018-04-12T05:19:10.806Z,99.99
2018-04-12T05:20:20.528Z,99.99
2018-04-12T05:21:30.237Z,99.99
2018-04-12T05:22:40.204Z,99.99
2018-04-12T05:23:50.192Z,99.99
2018-04-12T05:25:00.158Z,99.99
2018-04-12T05:26:10.126Z,99.99
2018-04-12T05:27:20.087Z,99.99
2018-04-12T05:28:29.536Z,99.99
2018-04-12T05:29:39.508Z,99.99
2018-04-12T05:30:49.246Z,99.99
2018-04-12T05:31:58.979Z,99.99
2018-04-12T05:33:08.776Z,99.99
2018-04-12T05:34:18.760Z,99.99
2018-04-12T05:35:28.483Z,99.99
2018-04-12T05:36:38.455Z,99.99
2018-04-12T05:37:48.175Z,99.99
2018-04-12T05:38:57.986Z,99.99
2018-04-12T05:40:07.718Z,99.99
2018-04-12T05:41:17.602Z,99.99
2018-04-12T05:42:27.672Z,99.99
2018-04-12T05:43:37.150Z,99.99
2018-04-12T05:44:47.145Z,99.99
2018-04-12T05:45:57.116Z,99.99
2018-04-12T05:47:07.112Z,99.99
2018-04-12T05:48:17.096Z,99.99
2018-04-12T05:49:26.825Z,99.99
2018-04-12T05:50:36.813Z,99.99
2018-04-12T05:51:46.799Z,99.99
2018-04-12T05:52:56.634Z,99.99
2018-04-12T05:54:06.656Z,99.99
2018-04-12T05:55:16.641Z,99.99
2018-04-12T05:56:26.650Z,99.99
2018-04-12T05:57:36.109Z,99.99
2018-04-12T05:58:46.093Z,99.99
2018-04-12T05:59:55.847Z,99.99
2018-04-12T06:01:05.570Z,99.99
2018-04-12T06:02:15.545Z,99.99
2018-04-12T06:03:25.529Z,99.99
2018-04-12T06:04:35.492Z,99.99
2018-04-12T06:05:45.467Z,99.99
2018-04-12T06:06:55.436Z,99.99
2018-04-12T06:08:05.430Z,99.99
2018-04-12T06:09:15.410Z,99.99
2018-04-12T06:10:25.122Z,99.99
2018-04-12T06:11:34.836Z,99.99
2018-04-12T06:12:44.936Z,99.99
2018-04-12T06:13:54.714Z,99.99
2018-04-12T06:15:04.691Z,99.99
2018-04-12T06:16:14.137Z,99.99
2018-04-12T06:17:23.873Z,99.99
2018-04-12T06:18:33.855Z,99.99
2018-04-12T06:19:43.585Z,99.99
2018-04-12T06:20:53.433Z,99.99
2018-04-12T06:22:03.521Z,99.99
2018-04-12T06:23:13.597Z,99.99
2018-04-12T06:24:23.601Z,99.99
2018-04-12T06:25:33.569Z,99.99
2018-04-12T06:26:43.564Z,99.99
2018-04-12T06:27:53.291Z,99.99
2018-04-12T06:29:03.285Z,99.99
2018-04-12T06:30:13.255Z,99.99
2018-04-12T06:31:23.257Z,99.99
2018-04-12T06:32:33.265Z,99.99
2018-04-12T06:33:43.319Z,99.99
2018-04-12T06:34:53.463Z,99.99
2018-04-12T06:36:03.439Z,99.99
2018-04-12T06:37:13.416Z,99.99
2018-04-12T06:38:23.421Z,99.99
2018-04-12T06:39:33.391Z,99.99
2018-04-12T06:40:43.367Z,99.99
2018-04-12T06:41:52.829Z,99.99
2018-04-12T06:43:02.814Z,99.99
2018-04-12T06:44:12.779Z,99.99
2018-04-12T06:45:22.787Z,99.99
2018-04-12T06:46:32.774Z,99.99
2018-04-12T06:47:42.239Z,99.99
2018-04-12T06:48:52.212Z,99.99
2018-04-12T06:50:02.206Z,99.99
2018-04-12T06:51:11.939Z,99.99
2018-04-12T06:52:21.937Z,99.99
2018-04-12T06:53:31.934Z,99.99
2018-04-12T06:54:41.924Z,99.99
2018-04-12T06:55:51.637Z,99.99
2018-04-12T06:57:00.844Z,99.99
2018-04-12T06:58:10.565Z,99.99
2018-04-12T06:59:20.038Z,99.99
2018-04-12T07:00:29.789Z,99.9
2018-04-12T07:01:39.792Z,99.33
2018-04-12T07:02:49.767Z,98.66
2018-04-12T07:03:59.787Z,99.23
2018-04-12T07:05:09.758Z,99.62
2018-04-12T07:06:19.493Z,98.94
2018-04-12T07:07:29.237Z,98.57
2018-04-12T07:08:39.234Z,98.66
2018-04-12T07:09:48.952Z,98.28
2018-04-12T07:10:58.958Z,97.61
2018-04-12T07:12:08.442Z,97.8
2018-04-12T07:13:18.178Z,97.71
2018-04-12T07:14:28.184Z,97.8
2018-04-12T07:15:38.237Z,97.61
2018-04-12T07:16:47.693Z,98.47
2018-04-12T07:17:57.670Z,97.61
2018-04-12T07:19:07.436Z,97.42
2018-04-12T07:20:17.209Z,97.03
2018-04-12T07:21:27.228Z,96.66
2018-04-12T07:22:37.233Z,97.28
2018-04-12T07:23:46.952Z,97.03
2018-04-12T07:24:57.054Z,96.32
2018-04-12T07:26:07.116Z,96.32
2018-04-12T07:27:17.181Z,96.51
2018-04-12T07:28:27.166Z,95.94
2018-04-12T07:29:36.901Z,95.94
2018-04-12T07:30:46.881Z,96.8
2018-04-12T07:31:56.617Z,96.13
2018-04-12T07:33:06.334Z,95.07
2018-04-12T07:34:16.323Z,95.27
2018-04-12T07:35:26.303Z,95.07
2018-04-12T07:36:36.297Z,95.36
2018-04-12T07:37:46.314Z,95.94
2018-04-12T07:38:56.068Z,94.98
2018-04-12T07:40:05.811Z,94.89
2018-04-12T07:41:15.879Z,95.27
2018-04-12T07:42:25.874Z,94.7
2018-04-12T07:43:35.637Z,94.31
2018-04-12T07:44:45.829Z,94.89
2018-04-12T07:45:55.575Z,94.79
2018-04-12T07:47:05.596Z,94.55
2018-04-12T07:48:15.622Z,93.6
2018-04-12T07:49:25.862Z,93.88
2018-04-12T07:50:35.867Z,92.83
2018-04-12T07:51:45.640Z,92.93
2018-04-12T07:52:55.563Z,93.21
2018-04-12T07:54:05.570Z,93.69
2018-04-12T07:55:15.295Z,92.83
2018-04-12T07:56:25.034Z,92.35
2018-04-12T07:57:35.078Z,92.64
2018-04-12T07:58:45.099Z,92.45
2018-04-12T07:59:55.089Z,92.11
2018-04-12T08:01:04.836Z,91.63
2018-04-12T08:02:14.814Z,90.58
2018-04-12T08:03:24.583Z,90.39
2018-04-12T08:04:34.611Z,90.48
2018-04-12T08:05:44.338Z,90.39
2018-04-12T08:06:54.330Z,90.1
2018-04-12T08:08:04.227Z,89.19
2018-04-12T08:09:14.052Z,89.09
2018-04-12T08:10:24.053Z,88.62
2018-04-12T08:11:33.788Z,88.52
2018-04-12T08:12:43.546Z,88.62
2018-04-12T08:13:53.557Z,88.52
2018-04-12T08:15:03.283Z,87.95
2018-04-12T08:16:13.364Z,87.76
2018-04-12T08:17:22.935Z,87.27
2018-04-12T08:18:32.662Z,87.32
2018-04-12T08:19:42.637Z,87.7
2018-04-12T08:20:52.123Z,87.95
2018-04-12T08:22:02.164Z,88.18
2018-04-12T08:23:12.273Z,88.43
2018-04-12T08:24:22.302Z,88.81
2018-04-12T08:25:32.383Z,88.62
2018-04-12T08:26:42.693Z,88.52
2018-04-12T08:27:52.497Z,88.81
2018-04-12T08:29:02.559Z,88.62
2018-04-12T08:30:12.608Z,88.43
2018-04-12T08:31:22.681Z,87.95
2018-04-12T08:32:32.429Z,87.7
2018-04-12T08:33:42.644Z,87.03
2018-04-12T08:34:52.647Z,86.84
2018-04-12T08:36:02.639Z,86.36
2018-04-12T08:37:12.641Z,85.74
2018-04-12T08:38:22.704Z,84.58
2018-04-12T08:39:32.771Z,83.82
2018-04-12T08:40:42.767Z,83.48
2018-04-12T08:41:52.779Z,82.32
2018-04-12T08:43:02.802Z,81.7
2018-04-12T08:44:12.523Z,81.89
2018-04-12T08:45:22.521Z,81.31
2018-04-12T08:46:32.537Z,80.74
2018-04-12T08:47:42.624Z,79.78
2018-04-12T08:48:52.613Z,80.3
2018-04-12T08:50:02.593Z,79.72
2018-04-12T08:51:12.630Z,79.53
2018-04-12T08:52:22.414Z,79.82
2018-04-12T08:53:32.204Z,79.82
2018-04-12T08:54:42.187Z,79.63
2018-04-12T08:55:52.288Z,79.34
2018-04-12T08:57:02.311Z,79.53
2018-04-12T08:58:12.355Z,79.82
2018-04-12T08:59:22.353Z,79.34
2018-04-12T09:00:32.097Z,78.57
2018-04-12T09:01:42.088Z,79.44
2018-04-12T09:02:52.116Z,78.86
2018-04-12T09:04:02.088Z,79.14
2018-04-12T09:05:12.079Z,78.57
2018-04-12T09:06:21.798Z,79.19
2018-04-12T09:07:31.517Z,78.7
2018-04-12T09:08:41.541Z,78.77
2018-04-12T09:09:51.276Z,78.52
2018-04-12T09:11:01.265Z,78.32
2018-04-12T09:12:10.942Z,78.03
2018-04-12T09:13:20.783Z,77.17
2018-04-12T09:14:30.640Z,77.36
2018-04-12T09:15:40.670Z,78.03
2018-04-12T09:16:50.678Z,77.17
2018-04-12T09:18:00.737Z,76.98
2018-04-12T09:19:10.818Z,76.73
2018-04-12T09:20:20.804Z,76.44
2018-04-12T09:21:30.288Z,75.52
2018-04-12T09:22:40.377Z,74.75
2018-04-12T09:23:50.374Z,73.5
2018-04-12T09:25:00.092Z,73.63
2018-04-12T09:26:10.147Z,72.67
2018-04-12T09:27:20.164Z,71.84
2018-04-12T09:28:29.636Z,71.42
2018-04-12T09:29:39.702Z,71.36
2018-04-12T09:30:49.725Z,71.46
2018-04-12T09:31:59.703Z,71.84
2018-04-12T09:33:09.467Z,72
2018-04-12T09:34:19.539Z,71.81
2018-04-12T09:35:29.572Z,71.26
2018-04-12T09:36:39.321Z,71.75
2018-04-12T09:37:49.310Z,70.5
2018-04-12T09:38:59.303Z,70.21
2018-04-12T09:40:09.301Z,70.3
2018-04-12T09:41:19.390Z,70.68
2018-04-12T09:42:28.915Z,70.88
2018-04-12T09:43:38.995Z,70.5
2018-04-12T09:44:48.743Z,70.21
2018-04-12T09:45:58.730Z,70.62
2018-04-12T09:47:08.476Z,70.05
2018-04-12T09:48:18.467Z,69.63
2018-04-12T09:49:28.707Z,69.47
2018-04-12T09:50:38.426Z,69.95
2018-04-12T09:51:48.429Z,69.57
2018-04-12T09:52:58.158Z,68.9
2018-04-12T09:54:07.894Z,68.8
2018-04-12T09:55:17.824Z,68.8
2018-04-12T09:56:27.840Z,68.26
2018-04-12T09:57:37.820Z,68.16
2018-04-12T09:58:47.826Z,68.26
2018-04-12T09:59:57.978Z,67.97
2018-04-12T10:01:08.145Z,67.77
2018-04-12T10:02:17.893Z,66.94
2018-04-12T10:03:27.622Z,66.17
2018-04-12T10:04:37.092Z,66.46
2018-04-12T10:05:47.091Z,66.36
2018-04-12T10:06:57.090Z,66.46
2018-04-12T10:08:07.073Z,65.88
2018-04-12T10:09:17.088Z,65.3
2018-04-12T10:10:26.895Z,65.4
2018-04-12T10:11:36.881Z,64.73
2018-04-12T10:12:46.929Z,64.66
2018-04-12T10:13:56.659Z,64.37
2018-04-12T10:15:06.689Z,65.3
2018-04-12T10:16:16.416Z,64.05
2018-04-12T10:17:26.502Z,63.5
2018-04-12T10:18:36.734Z,63.54
2018-04-12T10:19:46.724Z,63.44
2018-04-12T10:20:56.713Z,62.96
2018-04-12T10:22:06.700Z,62.38
2018-04-12T10:23:16.685Z,62.02
2018-04-12T10:24:26.676Z,62.28
2018-04-12T10:25:36.493Z,62.18
2018-04-12T10:26:46.548Z,62.18
2018-04-12T10:27:56.543Z,62.09
2018-04-12T10:29:06.536Z,62.18
2018-04-12T10:30:16.264Z,62.28
2018-04-12T10:31:26.250Z,61.06
2018-04-12T10:32:35.980Z,61.35
2018-04-12T10:33:45.976Z,62.18
2018-04-12T10:34:55.953Z,62.38
2018-04-12T10:36:06.007Z,62.38
2018-04-12T10:37:15.742Z,62.63
2018-04-12T10:38:25.480Z,62.63
2018-04-12T10:39:35.527Z,62.06
2018-04-12T10:40:45.390Z,62.35
2018-04-12T10:41:55.477Z,63.31
2018-04-12T10:43:04.943Z,62.45
2018-04-12T10:44:14.691Z,62.93
2018-04-12T10:45:24.549Z,61.58
2018-04-12T10:46:34.297Z,62.15
2018-04-12T10:47:44.358Z,62.73
2018-04-12T10:48:54.092Z,61.41
2018-04-12T10:50:04.096Z,61.61
2018-04-12T10:51:14.247Z,61.13
2018-04-12T10:52:24.325Z,60.26
2018-04-12T10:53:34.079Z,60.55
2018-04-12T10:54:44.314Z,59.75
2018-04-12T10:55:54.277Z,59.84
2018-04-12T10:57:04.001Z,59.87
2018-04-12T10:58:13.990Z,59.3
2018-04-12T10:59:24.123Z,59.3
2018-04-12T11:00:34.207Z,59.2
2018-04-12T11:01:43.928Z,59.39
2018-04-12T11:02:53.914Z,58.75
2018-04-12T11:04:03.900Z,58.75
2018-04-12T11:05:13.623Z,57.59
2018-04-12T11:06:23.596Z,57.14
2018-04-12T11:07:33.370Z,57.23
2018-04-12T11:08:43.384Z,56.46
2018-04-12T11:09:53.405Z,56.26
2018-04-12T11:11:03.138Z,55.71
2018-04-12T11:12:13.206Z,55.42
2018-04-12T11:13:23.408Z,54.75
2018-04-12T11:14:33.400Z,54.65
2018-04-12T11:15:43.391Z,55.33
2018-04-12T11:16:53.373Z,55.9
2018-04-12T11:18:02.852Z,56.29
2018-04-12T11:19:12.861Z,54.36
2018-04-12T11:20:22.843Z,54.19
2018-04-12T11:21:32.580Z,53.33
2018-04-12T11:22:42.776Z,53.71
2018-04-12T11:23:52.765Z,53.61
2018-04-12T11:25:02.747Z,52.97
2018-04-12T11:26:12.776Z,52.87
2018-04-12T11:27:22.783Z,51.64
2018-04-12T11:28:32.826Z,51.25
2018-04-12T11:29:43.055Z,52.12
2018-04-12T11:30:52.946Z,52.41
2018-04-12T11:32:02.933Z,52.31
2018-04-12T11:33:12.956Z,51.83
2018-04-12T11:34:22.576Z,51.28
2018-04-12T11:35:32.499Z,50.6
2018-04-12T11:36:42.230Z,49.95
2018-04-12T11:37:52.306Z,50.16
2018-04-12T11:39:02.033Z,49.37
2018-04-12T11:40:12.031Z,48.52
2018-04-12T11:41:21.549Z,48.59
2018-04-12T11:42:31.535Z,48.39
2018-04-12T11:43:41.545Z,48.69
2018-04-12T11:44:52.798Z,48.49
2018-04-12T11:46:02.923Z,48.97
2018-04-12T11:47:12.676Z,49.63
2018-04-12T11:48:22.688Z,49.05
2018-04-12T11:49:32.719Z,49.24
2018-04-12T11:50:42.550Z,48.79
2018-04-12T11:51:52.562Z,48.32
2018-04-12T11:53:02.541Z,47.45
2018-04-12T11:54:12.804Z,47.26
2018-04-12T11:55:22.794Z,46.51
2018-04-12T11:56:32.847Z,46.12
2018-04-12T11:57:42.671Z,45.92
2018-04-12T11:58:52.653Z,45.75
2018-04-12T12:00:02.645Z,45.47
2018-04-12T12:01:12.642Z,45.65
2018-04-12T12:02:22.707Z,44.78
2018-04-12T12:03:32.710Z,45.73
2018-04-12T12:04:42.733Z,46
2018-04-12T12:05:52.733Z,46.09
2018-04-12T12:07:02.816Z,46.19
2018-04-12T12:08:12.835Z,46.09
2018-04-12T12:09:22.839Z,45.81
2018-04-12T12:10:32.901Z,45.92
2018-04-12T12:11:42.893Z,46.58
2018-04-12T12:12:52.399Z,45.42
2018-04-12T12:14:02.418Z,45.51
2018-04-12T12:15:11.942Z,45.61
2018-04-12T12:16:21.709Z,45.83
2018-04-12T12:17:31.354Z,45.05
2018-04-12T12:18:41.582Z,45.22
2018-04-12T12:19:51.624Z,44.93
2018-04-12T12:21:01.633Z,45.13
2018-04-12T12:22:11.628Z,45.42
2018-04-12T12:23:21.618Z,45.22
2018-04-12T12:24:31.611Z,45.03
2018-04-12T12:25:41.386Z,44.67
2018-04-12T12:26:51.442Z,44.37
2018-04-12T12:28:01.449Z,43.79
2018-04-12T12:29:11.431Z,43.89
2018-04-12T12:30:21.164Z,44.18
2018-04-12T12:31:31.201Z,43.89
2018-04-12T12:32:40.963Z,43.62
2018-04-12T12:33:50.972Z,43.52
2018-04-12T12:35:00.958Z,43.91
2018-04-12T12:36:10.962Z,44.3
2018-04-12T12:37:21.036Z,43.45
2018-04-12T12:38:31.051Z,42.29
2018-04-12T12:39:40.779Z,41.84
2018-04-12T12:40:50.791Z,42.02
2018-04-12T12:42:00.984Z,41.33
2018-04-12T12:43:10.734Z,42.19
2018-04-12T12:44:20.727Z,42.09
2018-04-12T12:45:30.775Z,42.17
2018-04-12T12:46:40.775Z,42.46
2018-04-12T12:47:50.777Z,42.55
2018-04-12T12:49:00.769Z,43.02
2018-04-12T12:50:10.763Z,42.75
2018-04-12T12:51:20.762Z,42.07
2018-04-12T12:52:30.740Z,41.31
2018-04-12T12:53:40.457Z,41.41
2018-04-12T12:54:50.231Z,41.22
2018-04-12T12:56:00.362Z,40.85
2018-04-12T12:57:10.334Z,40.39
2018-04-12T12:58:20.370Z,40.09
2018-04-12T12:59:30.350Z,39.51
2018-04-12T13:00:40.346Z,39.7
2018-04-12T13:01:50.342Z,40
2018-04-12T13:03:00.322Z,39.69
2018-04-12T13:04:10.051Z,39.69
2018-04-12T13:05:20.050Z,40.05
2018-04-12T13:06:30.028Z,39.86
2018-04-12T13:07:39.779Z,40.05
2018-04-12T13:08:49.776Z,40.64
2018-04-12T13:09:59.814Z,40.61
2018-04-12T13:11:09.726Z,40.99
2018-04-12T13:12:19.706Z,40.69
2018-04-12T13:13:29.774Z,40.89
2018-04-12T13:14:39.782Z,40.69
2018-04-12T13:15:49.774Z,40.69
2018-04-12T13:16:59.773Z,40.99
2018-04-12T13:18:09.782Z,40.59
2018-04-12T13:19:19.889Z,40.99
2018-04-12T13:20:30.011Z,41.37
2018-04-12T13:21:39.999Z,41.64
2018-04-12T13:22:49.996Z,41.37
2018-04-12T13:23:59.752Z,40.99
2018-04-12T13:25:09.773Z,42.13
2018-04-12T13:26:19.777Z,42.22
2018-04-12T13:27:29.781Z,42.05
2018-04-12T13:28:39.818Z,41.17
2018-04-12T13:29:49.810Z,40.69
2018-04-12T13:30:59.553Z,40.81
2018-04-12T13:32:09.772Z,40.13
2018-04-12T13:33:19.870Z,39.67
2018-04-12T13:34:29.893Z,39.28
2018-04-12T13:35:39.884Z,39.2
2018-04-12T13:36:49.607Z,39.18
2018-04-12T13:37:59.616Z,39.57
2018-04-12T13:39:09.599Z,38.81
2018-04-12T13:40:19.610Z,38.89
2018-04-12T13:41:29.597Z,39.11
2018-04-12T13:42:39.585Z,39.2
2018-04-12T13:43:49.052Z,38.71
2018-04-12T13:44:58.783Z,39.01
2018-04-12T13:46:08.759Z,38.91
2018-04-12T13:47:17.964Z,38.32
2018-04-12T13:48:27.688Z,38.06
2018-04-12T13:49:37.413Z,38.32
2018-04-12T13:50:47.422Z,38.52
2018-04-12T13:51:57.407Z,39.01
2018-04-12T13:53:07.422Z,38.42
2018-04-12T13:54:17.152Z,38.73
2018-04-12T13:55:26.896Z,38.25
2018-04-12T13:56:36.162Z,37.96
2018-04-12T13:57:46.225Z,37.96
2018-04-12T13:58:55.966Z,38.15
2018-04-12T14:00:05.960Z,37.94
2018-04-12T14:01:15.698Z,38.6
2018-04-12T14:02:24.921Z,38.81
2018-04-12T14:03:34.654Z,39.67
2018-04-12T14:04:44.432Z,39.28
2018-04-12T14:05:54.613Z,39.95
2018-04-12T14:07:04.630Z,39.18
2018-04-12T14:08:14.641Z,38.62
2018-04-12T14:09:24.638Z,38.42
2018-04-12T14:10:34.630Z,38.42
2018-04-12T14:11:44.654Z,38.81
2018-04-12T14:12:54.392Z,38.7
2018-04-12T14:14:04.401Z,38.91
2018-04-12T14:15:14.381Z,39.01
2018-04-12T14:16:24.384Z,38.81
2018-04-12T14:17:34.392Z,39.11
2018-04-12T14:18:44.360Z,38.32
2018-04-12T14:19:54.095Z,38.62
2018-04-12T14:21:04.080Z,37.57
2018-04-12T14:22:13.808Z,37.47
2018-04-12T14:23:23.530Z,37.65
2018-04-12T14:24:33.524Z,36.99
2018-04-12T14:25:43.254Z,37.18
2018-04-12T14:26:53.239Z,37.28
2018-04-12T14:28:02.744Z,36.69
2018-04-12T14:29:12.745Z,36.6
2018-04-12T14:30:22.733Z,37.28
2018-04-12T14:31:32.749Z,37.28
2018-04-12T14:32:42.748Z,38.04
2018-04-12T14:33:52.748Z,38.13
2018-04-12T14:35:02.728Z,38.32
2018-04-12T14:36:12.876Z,38.7
2018-04-12T14:37:22.910Z,38.87
2018-04-12T14:38:32.639Z,39.16
2018-04-12T14:39:42.621Z,39.74
2018-04-12T14:40:52.627Z,39.74
2018-04-12T14:42:02.634Z,39.53
2018-04-12T14:43:12.346Z,39.62
2018-04-12T14:44:22.329Z,39.53
2018-04-12T14:45:32.367Z,39.9
2018-04-12T14:46:42.104Z,39.92
2018-04-12T14:47:51.557Z,40.31
2018-04-12T14:49:01.546Z,40.58
2018-04-12T14:50:11.524Z,40.28
2018-04-12T14:51:21.510Z,40.09
2018-04-12T14:52:31.243Z,40.09
2018-04-12T14:53:40.979Z,40.19
2018-04-12T14:54:50.802Z,40.09
2018-04-12T14:56:00.852Z,40.48
2018-04-12T14:57:10.855Z,40.19
2018-04-12T14:58:20.856Z,40.48
2018-04-12T14:59:30.836Z,40.67
2018-04-12T15:00:40.616Z,40.67
2018-04-12T15:01:50.329Z,40.38